Time;durP1;ratioP1;P1;durP2;ratioP2;P2;SDS_P1;SDS_P2;PMS_P1;PMS_P2;Temp;Humidity;BMP_temperature;BMP_pressure;BME280_temperature;BME280_humidity;BME280_pressure;Samples;Min_cycle;Max_cycle;Signal;HPM_P1;HPM_P2
2023/03/08 00:00:22;;;;;;;;;;;;;;;;;;5037554;28;1501;-63
2023/03/08 00:02:47;;;;;;;;;;;;;;;;;;5042286;28;4935;-61
2023/03/08 00:05:12;;;;;;;;;;;;;;;;;;5043800;28;4536;-63
2023/03/08 00:07:38;;;;;;;;;;;;;;;;;;5044307;28;5167;-62
2023/03/08 00:10:03;;;;;;;;;;;;;;;;;;5039923;28;4956;-62
2023/03/08 00:12:29;;;;;;;;;;;;;;;;;;5073335;28;3145;-63
2023/03/08 00:14:54;;;;;;;;;;;;;;;;;;5045420;28;4592;-63
2023/03/08 00:17:19;;;;;;;;;;;;;;;;;;5043139;28;4639;-63
2023/03/08 00:19:44;;;;;;;;;;;;;;;;;;5047563;28;4512;-63
2023/03/08 00:22:10;;;;;;;;;;;;;;;;;;5039472;28;4539;-63
2023/03/08 00:24:36;;;;;;;;;;;;;;;;;;5041996;28;3378;-62
2023/03/08 00:27:01;;;;;;;;;;;;;;;;;;5041057;28;4618;-62
2023/03/08 00:29:26;;;;;;;;;;;;;;;;;;5035769;28;5047;-63
2023/03/08 00:31:52;;;;;;;;;;;;;;;;;;5047709;28;4610;-64
2023/03/08 00:34:17;;;;;;;;;;;;;;;;;;5041111;28;4661;-64
2023/03/08 00:36:42;;;;;;;;;;;;;;;;;;5037194;28;4737;-62
2023/03/08 00:39:08;;;;;;;;;;;;;;;;;;5042670;28;4821;-64
2023/03/08 00:41:33;;;;;;;;;;;;;;;;;;5048781;28;5012;-61
2023/03/08 00:43:58;;;;;;;;;;;;;;;;;;5046075;28;4989;-63
2023/03/08 00:46:24;;;;;;;;;;;;;;;;;;5040671;28;4822;-63
2023/03/08 00:48:49;;;;;;;;;;;;;;;;;;5041554;28;5100;-63
2023/03/08 00:51:14;;;;;;;;;;;;;;;;;;5041421;28;2287;-64
2023/03/08 00:53:40;;;;;;;;;;;;;;;;;;5031636;28;4598;-64
2023/03/08 00:56:05;;;;;;;;;;;;;;;;;;5043404;28;5041;-63
2023/03/08 00:58:30;;;;;;;;;;;;;;;;;;5032328;28;4461;-64
2023/03/08 01:00:56;;;;;;;;;;;;;;;;;;5041192;28;4771;-63
2023/03/08 01:03:21;;;;;;;;;;;;;;;;;;5045290;28;3420;-63
2023/03/08 01:05:47;;;;;;;;;;;;;;;;;;5045115;28;4453;-62
2023/03/08 01:08:13;;;;;;;;;;;;;;;;;;5051794;28;4507;-63
2023/03/08 01:10:38;;;;;;;;;;;;;;;;;;5039923;28;4569;-64
2023/03/08 01:13:04;;;;;;;;;;;;;;;;;;5034595;28;4670;-64
2023/03/08 01:15:29;;;;;;;;;;;;;;;;;;5046641;28;1241;-62
2023/03/08 01:17:55;;;;;;;;;;;;;;;;;;5037378;28;5092;-62
2023/03/08 01:20:20;;;;;;;;;;;;;;;;;;5042683;28;4554;-64
2023/03/08 01:22:45;;;;;;;;;;;;;;;;;;5038043;28;4479;-63
2023/03/08 01:25:10;;;;;;;;;;;;;;;;;;5041456;28;4680;-63
2023/03/08 01:27:36;;;;;;;;;;;;;;;;;;5033278;28;3291;-64
2023/03/08 01:30:01;;;;;;;;;;;;;;;;;;5033907;28;4916;-65
2023/03/08 01:32:26;;;;;;;;;;;;;;;;;;5037562;28;4610;-64
2023/03/08 01:34:51;;;;;;;;;;;;;;;;;;5048502;28;5074;-63
2023/03/08 01:37:17;;;;;;;;;;;;;;;;;;5039755;28;4954;-63
2023/03/08 01:39:42;;;;;;;;;;;;;;;;;;5037605;28;1365;-63
2023/03/08 01:42:07;;;;;;;;;;;;;;;;;;5040584;28;4858;-65
2023/03/08 01:44:53;;;;;;;;;;;;;;;;;;5044544;28;5158;-65
2023/03/08 01:47:19;;;;;;;;;;;;;;;;;;5041673;28;5050;-63
2023/03/08 01:49:44;;;;;;;;;;;;;;;;;;5039946;28;4739;-64
2023/03/08 01:52:11;;;;;;;;;;;;;;;;;;5040551;28;5107;-64
2023/03/08 01:54:50;;;;;;;;;;;;;;;;;;5038656;28;3019;-62
2023/03/08 01:57:26;;;;;;;;;;;;;;;;;;5051511;28;5017;-63
2023/03/08 01:59:52;;;;;;;;;;;;;;;;;;5051764;28;4687;-59
2023/03/08 02:02:41;;;;;;;;;;;;;;;;;;5041130;28;5077;-63
2023/03/08 02:05:06;;;;;;;;;;;;;;;;;;5041701;28;4734;-64
2023/03/08 02:07:31;;;;;;;;;;;;;;;;;;5035622;28;4539;-63
2023/03/08 02:09:57;;;;;;;;;;;;;;;;;;5041326;28;4541;-64
2023/03/08 02:12:22;;;;;;;;;;;;;;;;;;5040914;28;1582;-63
2023/03/08 02:14:47;;;;;;;;;;;;;;;;;;5040885;28;4550;-63
2023/03/08 02:17:12;;;;;;;;;;;;;;;;;;5037775;28;5300;-62
2023/03/08 02:19:58;;;;;;;;;;;;;;;;;;5035135;28;5079;-64
2023/03/08 02:22:23;;;;;;;;;;;;;;;;;;5037478;28;4487;-62
2023/03/08 02:24:49;;;;;;;;;;;;;;;;;;5045315;28;5479;-63
2023/03/08 02:27:19;;;;;;;;;;;;;;;;;;5042065;28;3218;-63
2023/03/08 02:29:44;;;;;;;;;;;;;;;;;;5037025;28;4972;-62
2023/03/08 02:32:09;;;;;;;;;;;;;;;;;;5041679;28;4581;-63
2023/03/08 02:34:35;;;;;;;;;;;;;;;;;;5040176;28;5131;-64
2023/03/08 02:37:00;;;;;;;;;;;;;;;;;;5037776;28;4840;-63
2023/03/08 02:39:25;;;;;;;;;;;;;;;;;;5044282;28;3628;-63
2023/03/08 02:41:50;;;;;;;;;;;;;;;;;;5041960;28;4985;-63
2023/03/08 02:44:16;;;;;;;;;;;;;;;;;;5046106;28;4427;-61
2023/03/08 02:46:41;;;;;;;;;;;;;;;;;;5042254;28;5052;-64
2023/03/08 02:49:06;;;;;;;;;;;;;;;;;;5037535;28;4538;-63
2023/03/08 02:51:31;;;;;;;;;;;;;;;;;;5038356;28;3530;-63
2023/03/08 02:53:57;;;;;;;;;;;;;;;;;;5040520;28;5132;-63
2023/03/08 02:56:22;;;;;;;;;;;;;;;;;;5046699;28;4460;-63
2023/03/08 02:58:47;;;;;;;;;;;;;;;;;;5044761;28;4893;-60
2023/03/08 03:01:13;;;;;;;;;;;;;;;;;;5039400;28;5257;-64
2023/03/08 03:03:38;;;;;;;;;;;;;;;;;;5041531;28;3538;-62
2023/03/08 03:06:03;;;;;;;;;;;;;;;;;;5040458;28;4656;-62
2023/03/08 03:08:29;;;;;;;;;;;;;;;;;;5045389;28;4635;-62
2023/03/08 03:10:54;;;;;;;;;;;;;;;;;;5039069;28;4676;-62
2023/03/08 03:13:20;;;;;;;;;;;;;;;;;;5045903;28;5103;-63
2023/03/08 03:15:45;;;;;;;;;;;;;;;;;;5047087;28;4521;-63
2023/03/08 03:18:10;;;;;;;;;;;;;;;;;;5041344;28;3351;-64
2023/03/08 03:20:36;;;;;;;;;;;;;;;;;;5045196;28;4411;-63
2023/03/08 03:23:01;;;;;;;;;;;;;;;;;;5044869;28;4612;-63
2023/03/08 03:25:27;;;;;;;;;;;;;;;;;;5040660;28;4610;-63
2023/03/08 03:27:53;;;;;;;;;;;;;;;;;;5034266;28;4528;-62
2023/03/08 03:30:18;;;;;;;;;;;;;;;;;;5042370;28;3291;-63
2023/03/08 03:32:43;;;;;;;;;;;;;;;;;;5042909;28;4992;-64
2023/03/08 03:35:08;;;;;;;;;;;;;;;;;;5043201;28;4487;-64
2023/03/08 03:37:35;;;;;;;;;;;;;;;;;;5046314;28;5117;-64
2023/03/08 03:40:00;;;;;;;;;;;;;;;;;;5034403;28;5011;-64
2023/03/08 03:42:25;;;;;;;;;;;;;;;;;;5047286;28;3339;-63
2023/03/08 03:44:51;;;;;;;;;;;;;;;;;;5036242;28;4641;-63
2023/03/08 03:47:16;;;;;;;;;;;;;;;;;;5046303;28;4457;-62
2023/03/08 03:49:41;;;;;;;;;;;;;;;;;;5048760;28;5207;-62
2023/03/08 03:52:07;;;;;;;;;;;;;;;;;;5045854;28;4527;-65
2023/03/08 03:54:32;;;;;;;;;;;;;;;;;;5045082;28;1118;-64
2023/03/08 03:56:59;;;;;;;;;;;;;;;;;;5046354;28;5272;-63
2023/03/08 03:59:24;;;;;;;;;;;;;;;;;;5042560;28;5062;-63
2023/03/08 04:01:49;;;;;;;;;;;;;;;;;;5025453;28;4502;-63
2023/03/08 04:04:15;;;;;;;;;;;;;;;;;;5043551;28;4569;-64
2023/03/08 04:06:40;;;;;;;;;;;;;;;;;;5045255;28;3079;-63
2023/03/08 04:09:06;;;;;;;;;;;;;;;;;;5047594;28;4594;-63
2023/03/08 04:11:32;;;;;;;;;;;;;;;;;;5038158;28;4601;-63
2023/03/08 04:13:57;;;;;;;;;;;;;;;;;;5045396;28;4631;-64
2023/03/08 04:16:26;;;;;;;;;;;;;;;;;;5034630;28;4711;-64
2023/03/08 04:18:53;;;;;;;;;;;;;;;;;;5045474;28;5037;-62
2023/03/08 04:21:18;;;;;;;;;;;;;;;;;;5043616;28;3352;-63
2023/03/08 04:23:43;;;;;;;;;;;;;;;;;;5044203;28;5068;-62
2023/03/08 04:26:09;;;;;;;;;;;;;;;;;;5045824;28;4507;-62
2023/03/08 04:28:34;;;;;;;;;;;;;;;;;;5040184;28;4491;-63
2023/03/08 04:31:00;;;;;;;;;;;;;;;;;;5034003;28;4774;-64
2023/03/08 04:33:25;;;;;;;;;;;;;;;;;;5046979;28;1192;-63
2023/03/08 04:35:50;;;;;;;;;;;;;;;;;;5050357;28;5155;-64
2023/03/08 04:38:16;;;;;;;;;;;;;;;;;;5038990;28;5164;-64
2023/03/08 04:41:10;;;;;;;;;;;;;;;;;;5037183;28;4750;-63
2023/03/08 04:43:36;;;;;;;;;;;;;;;;;;5037700;28;5112;-62
2023/03/08 04:46:01;;;;;;;;;;;;;;;;;;5044376;28;4479;-65
2023/03/08 04:48:27;;;;;;;;;;;;;;;;;;5037140;28;1975;-63
2023/03/08 04:50:56;;;;;;;;;;;;;;;;;;5041955;28;4479;-62
2023/03/08 04:53:21;;;;;;;;;;;;;;;;;;5040770;28;4620;-62
2023/03/08 04:55:46;;;;;;;;;;;;;;;;;;5041984;28;4510;-64
2023/03/08 04:58:12;;;;;;;;;;;;;;;;;;5043424;28;4735;-63
2023/03/08 05:00:37;;;;;;;;;;;;;;;;;;5046259;28;3275;-62
2023/03/08 05:03:02;;;;;;;;;;;;;;;;;;5040822;28;5805;-63
2023/03/08 05:05:27;;;;;;;;;;;;;;;;;;5043753;28;4692;-63
2023/03/08 05:07:53;;;;;;;;;;;;;;;;;;5042501;28;4475;-63
2023/03/08 05:10:18;;;;;;;;;;;;;;;;;;5034013;28;4506;-63
2023/03/08 05:12:43;;;;;;;;;;;;;;;;;;5037102;28;3386;-63
2023/03/08 05:15:09;;;;;;;;;;;;;;;;;;5041912;28;4487;-64
2023/03/08 05:17:34;;;;;;;;;;;;;;;;;;5040234;28;4491;-63
2023/03/08 05:19:59;;;;;;;;;;;;;;;;;;5044609;28;4744;-63
2023/03/08 05:22:25;;;;;;;;;;;;;;;;;;5037721;28;4511;-62
2023/03/08 05:24:51;;;;;;;;;;;;;;;;;;5040692;28;4505;-63
2023/03/08 05:27:16;;;;;;;;;;;;;;;;;;5038901;28;2589;-63
2023/03/08 05:29:42;;;;;;;;;;;;;;;;;;5040524;28;4877;-63
2023/03/08 05:32:09;;;;;;;;;;;;;;;;;;5047354;28;4858;-60
2023/03/08 05:34:34;;;;;;;;;;;;;;;;;;5049190;28;4521;-64
2023/03/08 05:37:00;;;;;;;;;;;;;;;;;;5040864;28;4801;-62
2023/03/08 05:39:25;;;;;;;;;;;;;;;;;;5041109;28;3353;-62
2023/03/08 05:41:51;;;;;;;;;;;;;;;;;;5034942;28;4961;-62
2023/03/08 05:44:16;;;;;;;;;;;;;;;;;;5043546;28;4650;-64
2023/03/08 05:46:41;;;;;;;;;;;;;;;;;;5045436;28;5059;-62
2023/03/08 05:49:06;;;;;;;;;;;;;;;;;;5041017;28;4636;-63
2023/03/08 05:51:32;;;;;;;;;;;;;;;;;;5041299;28;2259;-63
2023/03/08 05:53:57;;;;;;;;;;;;;;;;;;5039278;28;4918;-63
2023/03/08 05:56:22;;;;;;;;;;;;;;;;;;5036897;28;4950;-64
2023/03/08 05:58:48;;;;;;;;;;;;;;;;;;5044259;28;5017;-63
2023/03/08 06:01:15;;;;;;;;;;;;;;;;;;5052626;28;4829;-62
2023/03/08 06:03:41;;;;;;;;;;;;;;;;;;5046416;28;1604;-63
2023/03/08 06:06:06;;;;;;;;;;;;;;;;;;5046489;28;4413;-63
2023/03/08 06:08:31;;;;;;;;;;;;;;;;;;5035427;28;5458;-63
2023/03/08 06:10:57;;;;;;;;;;;;;;;;;;5043890;28;5055;-61
2023/03/08 06:13:22;;;;;;;;;;;;;;;;;;5044079;28;4567;-62
2023/03/08 06:15:47;;;;;;;;;;;;;;;;;;5042163;28;4674;-64
2023/03/08 06:18:12;;;;;;;;;;;;;;;;;;5045188;28;3235;-63
2023/03/08 06:20:38;;;;;;;;;;;;;;;;;;5043127;28;4947;-63
2023/03/08 06:23:03;;;;;;;;;;;;;;;;;;5046041;28;4458;-63
2023/03/08 06:25:28;;;;;;;;;;;;;;;;;;5051309;28;4528;-64
2023/03/08 06:27:54;;;;;;;;;;;;;;;;;;5049945;28;4586;-63
2023/03/08 06:30:19;;;;;;;;;;;;;;;;;;5035513;28;3689;-63
2023/03/08 06:32:45;;;;;;;;;;;;;;;;;;5044078;28;4899;-61
2023/03/08 06:35:10;;;;;;;;;;;;;;;;;;5042785;28;4534;-63
2023/03/08 06:37:36;;;;;;;;;;;;;;;;;;5050854;28;5094;-63
2023/03/08 06:40:02;;;;;;;;;;;;;;;;;;5045983;28;4481;-64
2023/03/08 06:42:27;;;;;;;;;;;;;;;;;;5041609;28;3374;-62
2023/03/08 06:44:53;;;;;;;;;;;;;;;;;;5039944;28;4464;-58
2023/03/08 06:47:18;;;;;;;;;;;;;;;;;;5036192;28;4509;-58
2023/03/08 06:49:43;;;;;;;;;;;;;;;;;;5042478;28;5440;-58
2023/03/08 06:52:08;;;;;;;;;;;;;;;;;;5043369;28;4552;-58
2023/03/08 06:54:33;;;;;;;;;;;;;;;;;;5041093;28;3266;-57
2023/03/08 06:56:59;;;;;;;;;;;;;;;;;;5045419;28;4412;-59
2023/03/08 06:59:24;;;;;;;;;;;;;;;;;;5047922;28;4947;-58
2023/03/08 07:01:49;;;;;;;;;;;;;;;;;;5048675;28;4999;-58
2023/03/08 07:04:16;;;;;;;;;;;;;;;;;;5038240;28;4732;-59
2023/03/08 07:06:42;;;;;;;;;;;;;;;;;;5046713;28;983;-59
2023/03/08 07:09:07;;;;;;;;;;;;;;;;;;5047202;28;5223;-58
2023/03/08 07:11:33;;;;;;;;;;;;;;;;;;5048853;28;4960;-59
2023/03/08 07:13:58;;;;;;;;;;;;;;;;;;5045748;28;4895;-58
2023/03/08 07:16:23;;;;;;;;;;;;;;;;;;5045454;28;5221;-61
2023/03/08 07:18:48;;;;;;;;;;;;;;;;;;5042374;28;4631;-60
2023/03/08 07:21:14;;;;;;;;;;;;;;;;;;5039038;28;3360;-62
2023/03/08 07:23:39;;;;;;;;;;;;;;;;;;5041337;28;4438;-63
2023/03/08 07:26:05;;;;;;;;;;;;;;;;;;5052307;28;4588;-64
2023/03/08 07:28:30;;;;;;;;;;;;;;;;;;5043735;28;5076;-64
2023/03/08 07:30:55;;;;;;;;;;;;;;;;;;5043610;28;4560;-63
2023/03/08 07:33:21;;;;;;;;;;;;;;;;;;5036095;28;1525;-65
2023/03/08 07:35:46;;;;;;;;;;;;;;;;;;5040545;28;4727;-64
2023/03/08 07:38:11;;;;;;;;;;;;;;;;;;5035785;28;5020;-63
2023/03/08 07:40:36;;;;;;;;;;;;;;;;;;5048082;28;4457;-64
2023/03/08 07:43:02;;;;;;;;;;;;;;;;;;5053271;28;4673;-65
2023/03/08 07:45:27;;;;;;;;;;;;;;;;;;5049452;28;1334;-63
2023/03/08 07:47:53;;;;;;;;;;;;;;;;;;5047004;28;4479;-64
2023/03/08 07:50:18;;;;;;;;;;;;;;;;;;5048637;28;4861;-63
2023/03/08 07:52:43;;;;;;;;;;;;;;;;;;5048524;28;5009;-64
2023/03/08 07:55:10;;;;;;;;;;;;;;;;;;5048748;28;5120;-64
2023/03/08 07:57:35;;;;;;;;;;;;;;;;;;5048884;28;1197;-64
2023/03/08 08:00:00;;;;;;;;;;;;;;;;;;5048005;28;4974;-63
2023/03/08 08:02:25;;;;;;;;;;;;;;;;;;5048036;28;4461;-64
2023/03/08 08:04:51;;;;;;;;;;;;;;;;;;5048358;28;4473;-64
2023/03/08 08:07:16;;;;;;;;;;;;;;;;;;5048257;28;4590;-65
2023/03/08 08:09:41;;;;;;;;;;;;;;;;;;5077604;28;1969;-64
2023/03/08 08:12:07;;;;;;;;;;;;;;;;;;5048609;28;4409;-64
2023/03/08 08:14:32;;;;;;;;;;;;;;;;;;5039284;28;5402;-63
2023/03/08 08:16:57;;;;;;;;;;;;;;;;;;5045988;28;4856;-64
2023/03/08 08:19:23;;;;;;;;;;;;;;;;;;5036471;28;5026;-61
2023/03/08 08:21:48;;;;;;;;;;;;;;;;;;5041250;28;4554;-60
2023/03/08 08:24:14;;;;;;;;;;;;;;;;;;5034457;28;3270;-61
2023/03/08 08:26:39;;;;;;;;;;;;;;;;;;5038532;28;5073;-61
2023/03/08 08:29:04;;;;;;;;;;;;;;;;;;5041833;28;4592;-61
2023/03/08 08:31:29;;;;;;;;;;;;;;;;;;5035814;28;4671;-61
2023/03/08 08:33:55;;;;;;;;;;;;;;;;;;5040137;28;4971;-61
2023/03/08 08:36:21;;;;;;;;;;;;;;;;;;5044517;28;4859;-61
2023/03/08 08:38:46;;;;;;;;;;;;;;;;;;5038173;28;4498;-61
2023/03/08 08:41:14;;;;;;;;;;;;;;;;;;5029221;28;4735;-61
2023/03/08 08:43:39;;;;;;;;;;;;;;;;;;5044391;28;4439;-61
2023/03/08 08:46:05;;;;;;;;;;;;;;;;;;5046389;28;4629;-61
2023/03/08 08:48:32;;;;;;;;;;;;;;;;;;5045696;28;1914;-61
2023/03/08 08:50:57;;;;;;;;;;;;;;;;;;5040405;28;4514;-61
2023/03/08 08:53:22;;;;;;;;;;;;;;;;;;5042159;28;4740;-61
2023/03/08 08:55:48;;;;;;;;;;;;;;;;;;5033174;28;4509;-61
2023/03/08 08:58:13;;;;;;;;;;;;;;;;;;5047470;28;5031;-61
2023/03/08 09:00:38;;;;;;;;;;;;;;;;;;5040148;28;3295;-61
2023/03/08 09:03:04;;;;;;;;;;;;;;;;;;5039172;28;4414;-61
2023/03/08 09:05:29;;;;;;;;;;;;;;;;;;5015880;28;5171;-61
2023/03/08 09:07:57;;;;;;;;;;;;;;;;;;5035816;28;5201;-61
2023/03/08 09:10:22;;;;;;;;;;;;;;;;;;5037758;28;5150;-61
2023/03/08 09:12:47;;;;;;;;;;;;;;;;;;5039971;28;5118;-64
2023/03/08 09:15:13;;;;;;;;;;;;;;;;;;5037863;28;3333;-64
2023/03/08 09:17:38;;;;;;;;;;;;;;;;;;5040307;28;4688;-61
2023/03/08 09:20:14;;;;;;;;;;;;;;;;;;5044699;28;5007;-63
2023/03/08 09:22:39;;;;;;;;;;;;;;;;;;5037592;28;4927;-61
2023/03/08 09:25:05;;;;;;;;;;;;;;;;;;5033750;28;4681;-60
2023/03/08 09:27:30;;;;;;;;;;;;;;;;;;5035120;28;3490;-61
2023/03/08 09:29:55;;;;;;;;;;;;;;;;;;5039929;28;4573;-64
2023/03/08 09:32:21;;;;;;;;;;;;;;;;;;5048522;28;4425;-63
2023/03/08 09:34:46;;;;;;;;;;;;;;;;;;5043751;28;5132;-63
2023/03/08 09:37:11;;;;;;;;;;;;;;;;;;5042992;28;4862;-63
2023/03/08 09:39:39;;;;;;;;;;;;;;;;;;5041573;28;3292;-63
2023/03/08 09:42:04;;;;;;;;;;;;;;;;;;5033428;28;5137;-64
2023/03/08 09:44:42;;;;;;;;;;;;;;;;;;5039953;28;4515;-63
2023/03/08 09:47:19;;;;;;;;;;;;;;;;;;5046049;28;4509;-63
2023/03/08 09:49:45;;;;;;;;;;;;;;;;;;5033800;28;4509;-63
2023/03/08 09:52:17;;;;;;;;;;;;;;;;;;5071819;28;4947;-63
2023/03/08 09:54:42;;;;;;;;;;;;;;;;;;5041211;28;1401;-64
2023/03/08 09:57:18;;;;;;;;;;;;;;;;;;5080344;28;4395;-63
2023/03/08 09:59:45;;;;;;;;;;;;;;;;;;5038993;28;5032;-63
2023/03/08 10:02:25;;;;;;;;;;;;;;;;;;5072090;28;4513;-63
2023/03/08 10:04:50;;;;;;;;;;;;;;;;;;5043640;28;4678;-64
2023/03/08 10:07:35;;;;;;;;;;;;;;;;;;5036596;28;5455;-63
2023/03/08 10:10:22;;;;;;;;;;;;;;;;;;5039706;28;5043;-64
2023/03/08 10:12:51;;;;;;;;;;;;;;;;;;5044821;28;5027;-63
2023/03/08 10:15:17;;;;;;;;;;;;;;;;;;5048015;28;2153;-63
2023/03/08 10:17:45;;;;;;;;;;;;;;;;;;5045020;28;4543;-63
2023/03/08 10:20:13;;;;;;;;;;;;;;;;;;5045743;28;4670;-63
2023/03/08 10:22:41;;;;;;;;;;;;;;;;;;5042945;28;4665;-63
2023/03/08 10:25:15;;;;;;;;;;;;;;;;;;5047665;28;4590;-63
2023/03/08 10:27:40;;;;;;;;;;;;;;;;;;5038444;28;1608;-63
2023/03/08 10:30:15;;;;;;;;;;;;;;;;;;5042333;28;4463;-62
2023/03/08 10:32:42;;;;;;;;;;;;;;;;;;5045884;28;4916;-61
2023/03/08 10:35:07;;;;;;;;;;;;;;;;;;5047049;28;5381;-62
2023/03/08 10:37:32;;;;;;;;;;;;;;;;;;5038921;28;4973;-61
2023/03/08 10:40:02;;;;;;;;;;;;;;;;;;5048960;28;5105;-61
2023/03/08 10:42:27;;;;;;;;;;;;;;;;;;5049397;28;1607;-61
2023/03/08 10:44:59;;;;;;;;;;;;;;;;;;5039623;28;5030;-61
2023/03/08 10:47:29;;;;;;;;;;;;;;;;;;5049145;28;4496;-61
2023/03/08 10:50:12;;;;;;;;;;;;;;;;;;5041523;28;4531;-61
2023/03/08 10:52:38;;;;;;;;;;;;;;;;;;5044477;28;5169;-61
2023/03/08 10:55:04;;;;;;;;;;;;;;;;;;5049204;28;4908;-61
2023/03/08 10:57:30;;;;;;;;;;;;;;;;;;5049852;28;1242;-61
2023/03/08 10:59:56;;;;;;;;;;;;;;;;;;5047894;28;4444;-61
2023/03/08 11:02:21;;;;;;;;;;;;;;;;;;5039505;28;4591;-62
2023/03/08 11:04:54;;;;;;;;;;;;;;;;;;5041470;28;4637;-61
2023/03/08 11:07:22;;;;;;;;;;;;;;;;;;5049834;28;4749;-61
2023/03/08 11:09:48;;;;;;;;;;;;;;;;;;5043637;28;4676;-62
2023/03/08 11:12:23;;;;;;;;;;;;;;;;;;5046407;28;1343;-62
2023/03/08 11:14:48;;;;;;;;;;;;;;;;;;5049312;28;4415;-61
2023/03/08 11:17:19;;;;;;;;;;;;;;;;;;5044645;28;4434;-61
2023/03/08 11:19:48;;;;;;;;;;;;;;;;;;5044585;28;4784;-61
2023/03/08 11:22:27;;;;;;;;;;;;;;;;;;5079200;28;5021;-61
2023/03/08 11:25:11;;;;;;;;;;;;;;;;;;5043919;28;5193;-62
2023/03/08 11:27:45;;;;;;;;;;;;;;;;;;5046665;28;1100;-61
2023/03/08 11:30:13;;;;;;;;;;;;;;;;;;5033159;28;5971;-61
2023/03/08 11:33:02;;;;;;;;;;;;;;;;;;5037892;28;4455;-62
2023/03/08 11:35:56;;;;;;;;;;;;;;;;;;5048497;28;5162;-61
2023/03/08 11:38:25;;;;;;;;;;;;;;;;;;5043847;28;4625;-61
2023/03/08 11:40:51;;;;;;;;;;;;;;;;;;5037395;28;4633;-61
2023/03/08 11:43:22;;;;;;;;;;;;;;;;;;5048517;28;4597;-61
2023/03/08 11:45:47;;;;;;;;;;;;;;;;;;5045218;28;4783;-61
2023/03/08 11:48:30;;;;;;;;;;;;;;;;;;5046303;28;1029;-62
2023/03/08 11:50:59;;;;;;;;;;;;;;;;;;5048656;28;4499;-61
2023/03/08 11:53:28;;;;;;;;;;;;;;;;;;5046827;28;4445;-61
2023/03/08 11:56:03;;;;;;;;;;;;;;;;;;5045443;28;4725;-61
2023/03/08 11:58:32;;;;;;;;;;;;;;;;;;5047825;28;4441;-61
2023/03/08 12:01:01;;;;;;;;;;;;;;;;;;5042198;28;5005;-62
2023/03/08 12:03:39;;;;;;;;;;;;;;;;;;5080769;28;1231;-61
2023/03/08 12:06:12;;;;;;;;;;;;;;;;;;5037456;28;5097;-62
2023/03/08 12:08:38;;;;;;;;;;;;;;;;;;5027525;28;4933;-61
2023/03/08 12:11:04;;;;;;;;;;;;;;;;;;5047566;28;4445;-61
2023/03/08 12:13:40;;;;;;;;;;;;;;;;;;5046027;28;4477;-61
2023/03/08 12:16:25;;;;;;;;;;;;;;;;;;5080559;28;5218;-61
2023/03/08 12:18:56;;;;;;;;;;;;;;;;;;5046683;28;4449;-61
2023/03/08 12:21:33;;;;;;;;;;;;;;;;;;5049196;28;1093;-61
2023/03/08 12:24:17;;;;;;;;;;;;;;;;;;5069354;28;5300;-61
2023/03/08 12:26:44;;;;;;;;;;;;;;;;;;5045122;28;4700;-61
2023/03/08 12:29:38;;;;;;;;;;;;;;;;;;5028727;28;5024;-61
2023/03/08 12:32:04;;;;;;;;;;;;;;;;;;5040358;28;4664;-61
2023/03/08 12:34:36;;;;;;;;;;;;;;;;;;5035961;28;4765;-61
2023/03/08 12:37:02;;;;;;;;;;;;;;;;;;5037582;28;4786;-61
2023/03/08 12:39:28;;;;;;;;;;;;;;;;;;5040183;28;3483;-63
2023/03/08 12:42:09;;;;;;;;;;;;;;;;;;5041210;28;4587;-62
2023/03/08 12:44:34;;;;;;;;;;;;;;;;;;5041651;28;4740;-68
2023/03/08 12:47:12;;;;;;;;;;;;;;;;;;5041047;28;4528;-67
2023/03/08 12:49:49;;;;;;;;;;;;;;;;;;5043105;28;4649;-68
2023/03/08 12:52:17;;;;;;;;;;;;;;;;;;5042632;28;4491;-69
2023/03/08 12:54:42;;;;;;;;;;;;;;;;;;5041823;28;3293;-70
2023/03/08 12:57:15;;;;;;;;;;;;;;;;;;5040647;28;4582;-70
2023/03/08 12:59:40;;;;;;;;;;;;;;;;;;5029216;28;4513;-70
2023/03/08 13:02:22;;;;;;;;;;;;;;;;;;5035235;28;4512;-63
2023/03/08 13:04:48;;;;;;;;;;;;;;;;;;5035704;28;4640;-63
2023/03/08 13:07:16;;;;;;;;;;;;;;;;;;5034558;28;5223;-58
2023/03/08 13:09:41;;;;;;;;;;;;;;;;;;5030776;28;3192;-62
2023/03/08 13:12:15;;;;;;;;;;;;;;;;;;5036893;28;4389;-61
2023/03/08 13:14:41;;;;;;;;;;;;;;;;;;5029877;28;4844;-48
2023/03/08 13:17:26;;;;;;;;;;;;;;;;;;5031120;28;5748;-48
2023/03/08 13:19:51;;;;;;;;;;;;;;;;;;5031725;28;4473;-50
2023/03/08 13:22:21;;;;;;;;;;;;;;;;;;5027729;28;4608;-47
2023/03/08 13:24:48;;;;;;;;;;;;;;;;;;5029856;28;4516;-47
2023/03/08 13:27:32;;;;;;;;;;;;;;;;;;5012400;28;1390;-47
2023/03/08 13:30:11;;;;;;;;;;;;;;;;;;5026356;28;4893;-48
2023/03/08 13:32:37;;;;;;;;;;;;;;;;;;5026431;28;4452;-46
2023/03/08 13:35:03;;;;;;;;;;;;;;;;;;5033122;28;5116;-49
2023/03/08 13:37:29;;;;;;;;;;;;;;;;;;5026535;28;4841;-48
2023/03/08 13:39:55;;;;;;;;;;;;;;;;;;5029746;28;4473;-48
2023/03/08 13:42:23;;;;;;;;;;;;;;;;;;5031572;28;1337;-49
2023/03/08 13:44:52;;;;;;;;;;;;;;;;;;5032645;28;5033;-51
2023/03/08 13:47:21;;;;;;;;;;;;;;;;;;5031623;28;4643;-48
2023/03/08 13:49:46;;;;;;;;;;;;;;;;;;5031163;28;5085;-49
2023/03/08 13:52:15;;;;;;;;;;;;;;;;;;5039857;28;5180;-45
2023/03/08 13:54:41;;;;;;;;;;;;;;;;;;5042897;28;1308;-51
2023/03/08 13:57:16;;;;;;;;;;;;;;;;;;5027368;28;4497;-49
2023/03/08 13:59:48;;;;;;;;;;;;;;;;;;5034829;28;5138;-49
2023/03/08 14:02:20;;;;;;;;;;;;;;;;;;5026770;28;4625;-46
2023/03/08 14:04:46;;;;;;;;;;;;;;;;;;5027332;28;5392;-47
2023/03/08 14:07:16;;;;;;;;;;;;;;;;;;5029926;28;4602;-47
2023/03/08 14:09:41;;;;;;;;;;;;;;;;;;5026607;28;1989;-47
2023/03/08 14:12:06;;;;;;;;;;;;;;;;;;5028527;28;4361;-47
2023/03/08 14:14:32;;;;;;;;;;;;;;;;;;5028181;28;4626;-50
2023/03/08 14:16:58;;;;;;;;;;;;;;;;;;5034562;28;5080;-46
2023/03/08 14:19:24;;;;;;;;;;;;;;;;;;5029133;28;4459;-45
2023/03/08 14:21:52;;;;;;;;;;;;;;;;;;5031642;28;4698;-50
2023/03/08 14:24:19;;;;;;;;;;;;;;;;;;5031286;28;1973;-47
2023/03/08 14:26:52;;;;;;;;;;;;;;;;;;5030465;28;4464;-50
2023/03/08 14:29:20;;;;;;;;;;;;;;;;;;5029781;28;4475;-44
2023/03/08 14:31:55;;;;;;;;;;;;;;;;;;5031410;28;5024;-46
2023/03/08 14:34:21;;;;;;;;;;;;;;;;;;5028917;28;4514;-52
2023/03/08 14:36:56;;;;;;;;;;;;;;;;;;5031172;28;4639;-48
2023/03/08 14:39:22;;;;;;;;;;;;;;;;;;5045561;28;3272;-48
2023/03/08 14:41:47;;;;;;;;;;;;;;;;;;5047478;28;5010;-51
2023/03/08 14:44:16;;;;;;;;;;;;;;;;;;5045812;28;4470;-46
2023/03/08 14:46:41;;;;;;;;;;;;;;;;;;5042811;28;4452;-45
2023/03/08 14:49:17;;;;;;;;;;;;;;;;;;5041463;28;5205;-47
2023/03/08 14:51:43;;;;;;;;;;;;;;;;;;5049677;28;1163;-47
2023/03/08 14:54:27;;;;;;;;;;;;;;;;;;5046473;28;4950;-46
2023/03/08 14:56:52;;;;;;;;;;;;;;;;;;5045658;28;4501;-46
2023/03/08 14:59:17;;;;;;;;;;;;;;;;;;5046966;28;4488;-47
2023/03/08 15:01:43;;;;;;;;;;;;;;;;;;5041905;28;4542;-48
2023/03/08 15:04:15;;;;;;;;;;;;;;;;;;5047296;28;4625;-46
2023/03/08 15:06:41;;;;;;;;;;;;;;;;;;5046394;28;1163;-45
2023/03/08 15:09:06;;;;;;;;;;;;;;;;;;5044084;28;4749;-47
2023/03/08 15:11:31;;;;;;;;;;;;;;;;;;5048139;28;4435;-48
2023/03/08 15:13:59;;;;;;;;;;;;;;;;;;5045104;28;5150;-49
2023/03/08 15:16:25;;;;;;;;;;;;;;;;;;5068284;28;5056;-47
2023/03/08 15:18:50;;;;;;;;;;;;;;;;;;5047495;28;4558;-47
2023/03/08 15:21:23;;;;;;;;;;;;;;;;;;5039900;28;1687;-47
2023/03/08 15:23:48;;;;;;;;;;;;;;;;;;5042563;28;5018;-47
2023/03/08 15:26:16;;;;;;;;;;;;;;;;;;5048209;28;4503;-48
2023/03/08 15:28:42;;;;;;;;;;;;;;;;;;5038806;28;4688;-46
2023/03/08 15:31:07;;;;;;;;;;;;;;;;;;5041655;28;4672;-48
2023/03/08 15:33:32;;;;;;;;;;;;;;;;;;5045497;28;1130;-49
2023/03/08 15:35:57;;;;;;;;;;;;;;;;;;5040408;28;5028;-47
2023/03/08 15:38:23;;;;;;;;;;;;;;;;;;5045268;28;5100;-53
2023/03/08 15:40:48;;;;;;;;;;;;;;;;;;5040992;28;5049;-53
2023/03/08 15:43:14;;;;;;;;;;;;;;;;;;5044646;28;4765;-52
2023/03/08 15:45:39;;;;;;;;;;;;;;;;;;5040380;28;1252;-51
2023/03/08 15:48:05;;;;;;;;;;;;;;;;;;5043609;28;4648;-48
2023/03/08 15:50:33;;;;;;;;;;;;;;;;;;5037416;28;4755;-53
2023/03/08 15:52:58;;;;;;;;;;;;;;;;;;5045787;28;4505;-53
2023/03/08 15:55:24;;;;;;;;;;;;;;;;;;5050088;28;4504;-51
2023/03/08 15:57:49;;;;;;;;;;;;;;;;;;5039414;28;5175;-50
2023/03/08 16:00:15;;;;;;;;;;;;;;;;;;5040946;28;3447;-50
2023/03/08 16:02:40;;;;;;;;;;;;;;;;;;5042957;28;4633;-52
2023/03/08 16:05:07;;;;;;;;;;;;;;;;;;5045200;28;5002;-54
2023/03/08 16:07:32;;;;;;;;;;;;;;;;;;5045788;28;4683;-54
2023/03/08 16:09:57;;;;;;;;;;;;;;;;;;5044478;28;5122;-56
2023/03/08 16:12:23;;;;;;;;;;;;;;;;;;5043836;28;3237;-55
2023/03/08 16:14:48;;;;;;;;;;;;;;;;;;5046257;28;5083;-53
2023/03/08 16:17:14;;;;;;;;;;;;;;;;;;5044341;28;4935;-45
2023/03/08 16:19:39;;;;;;;;;;;;;;;;;;5042111;28;4728;-49
2023/03/08 16:22:04;;;;;;;;;;;;;;;;;;5040267;28;4994;-47
2023/03/08 16:24:30;;;;;;;;;;;;;;;;;;5040608;28;3482;-49
2023/03/08 16:26:55;;;;;;;;;;;;;;;;;;5047208;28;4717;-49
2023/03/08 16:29:20;;;;;;;;;;;;;;;;;;5031720;28;5123;-49
2023/03/08 16:31:46;;;;;;;;;;;;;;;;;;5043990;28;5094;-51
2023/03/08 16:34:11;;;;;;;;;;;;;;;;;;5048327;28;4570;-45
2023/03/08 16:36:36;;;;;;;;;;;;;;;;;;5040741;28;4900;-51
2023/03/08 16:39:02;;;;;;;;;;;;;;;;;;5042944;28;4644;-48
2023/03/08 16:41:28;;;;;;;;;;;;;;;;;;5045215;28;5032;-51
2023/03/08 16:43:54;;;;;;;;;;;;;;;;;;5046586;28;4632;-46
2023/03/08 16:46:20;;;;;;;;;;;;;;;;;;5046334;28;5105;-48
2023/03/08 16:48:48;;;;;;;;;;;;;;;;;;5044274;28;4715;-47
2023/03/08 16:51:13;;;;;;;;;;;;;;;;;;5039507;28;3379;-51
2023/03/08 16:53:39;;;;;;;;;;;;;;;;;;5040540;28;4472;-63
2023/03/08 16:56:04;;;;;;;;;;;;;;;;;;5032331;28;4726;-64
2023/03/08 16:58:29;;;;;;;;;;;;;;;;;;5042730;28;4542;-64
2023/03/08 17:00:54;;;;;;;;;;;;;;;;;;5039633;28;4527;-62
2023/03/08 17:03:20;;;;;;;;;;;;;;;;;;5036500;28;3280;-61